AirNav   ATP
 
 588 users online  

44FD Hard Rock Heliport
Hollywood, Florida, USA

GOING TO HOLLYWOOD?


FAA INFORMATION EFFECTIVE 11 OCTOBER 2018

Location

FAA Identifier: 44FD
Lat/Long: 26-03-02.6900N / 080-12-39.2000W
26-03.044833N / 080-12.653333W
26.0507472 / -80.2108889
(estimated)
Elevation: 125 ft. / 38 m (estimated)
From city: 5 miles NW of HOLLYWOOD, FL
Time zone: UTC -4 (UTC -5 during Standard Time)
Zip code: 33314

Heliport Operations

Heliport use: Private use. Permission required prior to landing
Activation date: 12/2015
Control tower: no
ARTCC: MIAMI CENTER
FSS: MIAMI FLIGHT SERVICE STATION
Attendance: IREG
Wind indicator: yes
Segmented circle: yes

Heliport Communications

WX ASOS at HWO (3 nm SW): PHONE 954-983-5904
WX ASOS at FLL (4 nm E): PHONE 954-359-7857
WX ASOS at FXE (9 nm N): PHONE 954-772-2537
WX ASOS at OPF (9 nm SW): 125.9 (305-681-4063)
WX ASOS at PMP (13 nm NE): PHONE 954-783-3720
WX ASOS at MIA (16 nm S): PHONE 305-870-0235

Nearby radio navigation aids

VOR radial/distance  VOR name  Freq  Var
FLLr246/2.8FORT LAUDERDALE VOR/DME114.4006W
DHPr030/16.8DOLPHIN VORTAC113.9004W
VKZr354/18.2VIRGINIA KEY VOR/DME117.1004W
PBIr193/38.3PALM BEACH VORTAC115.7003W

 
NDB name  Hdg/Dist  Freq  Var  ID
PRAIZ157/9.322107WFX ..-. -..-

Heliport Services

Runway Information

Helipad H1

Dimensions: 50 x 50 ft. / 15 x 15 m
Surface: ROOF/TOP
Weight bearing capacity: 
Single wheel: 12.5
Traffic pattern: leftleft

Heliport Ownership and Management from official FAA records

Ownership: Privately-owned
Owner: SEMINOLE TRIBE OF FLORIDA
1 SEMINOLE WAY
HOLLYWOOD, FL 33024
Phone 863-983-7677
Manager: PEDRO RODRIQUEZ
35201 EAGLES LANDING
CLEWISTON, FL 33440
Phone 863-983-7677

Additional Remarks

HELI IS LCTD ON THE TOP FLOOR OF A PARKING GARAGE.
FOR CD CTC MIAMI APCH AT 305-869-5432.

Instrument Procedures

There are no published instrument procedures at 44FD.

Some nearby airports with instrument procedures:

KHWO - North Perry Airport (3 nm SW)
KFLL - Fort Lauderdale/Hollywood International Airport (4 nm E)
KFXE - Fort Lauderdale Executive Airport (9 nm N)
KOPF - Miami-Opa Locka Executive Airport (9 nm SW)
KPMP - Pompano Beach Airpark (13 nm NE)
KMIA - Miami International Airport (16 nm S)
 
Loc | Ops | Rwys | IFR | FBO | Links
Com | Nav | Svcs | Stats | Notes


 
Aerial photo
No photo
 
Airport distance calculator
Flying to Hard Rock Heliport? Find the distance to fly.

From to 44FD

Sunrise and sunset
Times for 20-Oct-2018
 Local
(UTC-4)
 Zulu
(UTC)
Morning civil twilight07:0011:00
Sunrise07:2311:23
Sunset18:4822:48
Evening civil twilight19:1123:11

Current date and time
Zulu (UTC)  20-Oct-2018 05:26:36
Local (UTC-4)  20-Oct-2018 01:26:36
 
METAR
KHWO 
3nm S 
200453Z 00000KT 10SM CLR 25/22 A3009 RMK AO2 SLP188 T02500222 403170250
KFLL 
3nm E 
200453Z 10006KT 10SM FEW027 26/24 A3006 RMK AO2 SLP180 T02610239 403000250
KOPF 
9nm SW 
200453Z AUTO 00000KT 10SM CLR 25/22 A3008 RMK AO2 SLP186 T02500222 403170244
KFXE 
9nm N 
200453Z 00000KT 10SM FEW020 26/23 A3007 RMK AO2 SLP185 T02560233 403110256
KPMP 
13nm NE 
200453Z AUTO 00000KT 10SM CLR 27/23 A3007 RMK AO2 SLP184 T02670228 403110267
KMIA 
17nm S 
200453Z 03003KT 10SM FEW026 26/23 A3008 RMK AO2 SLP184 T02610228 403060239
TAF
KFLL 
3nm E 
200300Z 2003/2106 09009KT P6SM SCT025 BKN250 FM200400 VRB06KT P6SM FEW025 SCT250 FM201800 13008KT P6SM SCT025 SCT250 FM210000 VRB04KT P6SM FEW025 SCT250
KOPF 
9nm SW 
200300Z 2003/2024 VRB05KT P6SM SCT030 SCT250 FM201900 14007KT P6SM SCT025 SCT250
KFXE 
9nm N 
200300Z 2003/2024 VRB06KT P6SM FEW025 SCT250 FM201800 13008KT P6SM SCT025 SCT250
KMIA 
17nm S 
200300Z 2003/2106 VRB06KT P6SM SCT030 SCT250 FM201800 13008KT P6SM SCT025 SCT250 FM210000 VRB04KT P6SM FEW025 SCT250
NOTAMs
Click for the latest NOTAMs
NOTAMs are issued by the DoD/FAA and will open in a separate window not controlled by AirNav.

 

 
 

Would you like to see your business listed on this page?

 If your business provides an interesting product or service to pilots, flight crews, aircraft, or users of the Hard Rock Heliport, you should consider listing it here.  To start the listing process, click on the button below
 
Add a business
 

Other Pages about Hard Rock Heliport

Update a link
 
Copyright © AirNav, LLC. All rights reserved. Privacy Policy  Contact